Página principal
METAR-TAF:

METAR-TAF

Aeroportos :

Aeroporto Internacional de Port Moresby

Port Moresby, Papua-Nova Guiné

latitude: 09-26S, longitude: 147-13E, altura: 38 m

Observação actual do tempo

O boletim foi feito há 20 minutos, às 02:00 UTC
Vento 10 kt de su-sudoeste
Temperatura 30°C
Humidade 62%
Pressão 1010 hPa
Visibilidade 10 km ou mais
Nuvens dispersasa uma altura de 4000 ft

METAR: AYPY 190200Z 20010KT 9999 SCT040 30/22 Q1010

Hora: 12:20 (02:20 UTC)

Previsão

O boletim foi feito há 4 horas e 34 minutos, às 21:46 UTC
Previsão válida de 19 às 00 UTC a 19 às 24 UTC
Vento 10 kt de su-sudeste
Visibilidade 10 km ou mais
Nuvens dispersasa uma altura de 2000 ft
Nuvens fragmentadasa uma altura de 14000 ft
A partir de 19 às 0400 UTC
Vento 12 kt de sul
Visibilidade 10 km ou mais
Nuvens dispersasa uma altura de 2000 ft
Nuvens fragmentadasa uma altura de 14000 ft

TAF: AYPY 182146Z 1900/1924 16010KT 9999 SCT020 BKN140 FM190400 17012KT 9999 SCT020 BKN140

Observações e previsões do tempo de mais de 4000 aeroportos (mensagens METAR e TAF).

As estações disponíveis são os pontos amarelos e vermelhos sobre o mapa.

Mova o rato sobre o mapa para ver o nome da estação.

Depois clique no ponto para visualizar as observações e previsões meteorológicas.

Para alterar o mapa : clique nos botões verdes com uma cruz preta para aumentar o zoom; no botão verde com uma pitada de zoom; ou nas setas verdes para mapas adjacentes.


METAR-TAF: